sensor_id;sensor_type;location;lat;lon;timestamp;P1;durP1;ratioP1;P2;durP2;ratioP2
16600;SDS011;34891;48.164;11.572;2023-03-23T00:02:35;3.75;;;1.77;;
16600;SDS011;34891;48.164;11.572;2023-03-23T00:07:40;3.83;;;2.00;;
16600;SDS011;34891;48.164;11.572;2023-03-23T00:12:45;4.78;;;2.33;;
16600;SDS011;34891;48.164;11.572;2023-03-23T00:17:51;5.32;;;2.92;;
16600;SDS011;34891;48.164;11.572;2023-03-23T00:22:54;1.10;;;0.98;;
16600;SDS011;34891;48.164;11.572;2023-03-23T00:28:00;3.65;;;1.38;;
16600;SDS011;34891;48.164;11.572;2023-03-23T00:33:03;2.30;;;1.80;;
16600;SDS011;34891;48.164;11.572;2023-03-23T00:38:07;3.55;;;1.77;;
16600;SDS011;34891;48.164;11.572;2023-03-23T00:43:09;3.67;;;1.88;;
16600;SDS011;34891;48.164;11.572;2023-03-23T00:48:14;1.67;;;0.88;;
16600;SDS011;34891;48.164;11.572;2023-03-23T00:53:17;2.75;;;1.83;;
16600;SDS011;34891;48.164;11.572;2023-03-23T00:58:19;1.90;;;0.85;;
16600;SDS011;34891;48.164;11.572;2023-03-23T01:03:22;2.58;;;1.60;;
16600;SDS011;34891;48.164;11.572;2023-03-23T01:08:28;7.03;;;2.33;;
16600;SDS011;34891;48.164;11.572;2023-03-23T01:13:33;9.07;;;2.20;;
16600;SDS011;34891;48.164;11.572;2023-03-23T01:18:34;4.80;;;2.55;;
16600;SDS011;34891;48.164;11.572;2023-03-23T01:23:38;5.22;;;2.05;;
16600;SDS011;34891;48.164;11.572;2023-03-23T01:28:40;5.10;;;1.90;;
16600;SDS011;34891;48.164;11.572;2023-03-23T01:33:43;2.97;;;1.67;;
16600;SDS011;34891;48.164;11.572;2023-03-23T01:38:47;5.65;;;1.95;;
16600;SDS011;34891;48.164;11.572;2023-03-23T01:48:52;3.53;;;1.90;;
16600;SDS011;34891;48.164;11.572;2023-03-23T01:53:57;3.25;;;1.88;;
16600;SDS011;34891;48.164;11.572;2023-03-23T01:59:00;3.35;;;1.75;;
16600;SDS011;34891;48.164;11.572;2023-03-23T02:04:01;2.97;;;1.70;;
16600;SDS011;34891;48.164;11.572;2023-03-23T02:09:05;4.15;;;1.73;;
16600;SDS011;34891;48.164;11.572;2023-03-23T02:14:08;3.60;;;1.58;;
16600;SDS011;34891;48.164;11.572;2023-03-23T02:19:24;3.30;;;1.70;;
16600;SDS011;34891;48.164;11.572;2023-03-23T02:29:58;8.18;;;1.85;;
16600;SDS011;34891;48.164;11.572;2023-03-23T02:35:06;4.30;;;1.95;;
16600;SDS011;34891;48.164;11.572;2023-03-23T02:40:12;3.22;;;1.67;;
16600;SDS011;34891;48.164;11.572;2023-03-23T02:45:17;7.03;;;1.75;;
16600;SDS011;34891;48.164;11.572;2023-03-23T02:50:23;1.70;;;1.10;;
16600;SDS011;34891;48.164;11.572;2023-03-23T02:55:26;4.15;;;1.83;;
16600;SDS011;34891;48.164;11.572;2023-03-23T03:00:29;4.25;;;1.55;;
16600;SDS011;34891;48.164;11.572;2023-03-23T03:05:35;3.67;;;1.80;;
16600;SDS011;34891;48.164;11.572;2023-03-23T03:10:43;4.95;;;1.75;;
16600;SDS011;34891;48.164;11.572;2023-03-23T03:15:48;3.50;;;1.70;;
16600;SDS011;34891;48.164;11.572;2023-03-23T03:21:03;4.03;;;1.73;;
16600;SDS011;34891;48.164;11.572;2023-03-23T03:26:06;1.77;;;0.95;;
16600;SDS011;34891;48.164;11.572;2023-03-23T03:31:10;3.17;;;1.73;;
16600;SDS011;34891;48.164;11.572;2023-03-23T03:36:16;3.78;;;1.70;;
16600;SDS011;34891;48.164;11.572;2023-03-23T03:41:19;2.90;;;1.17;;
16600;SDS011;34891;48.164;11.572;2023-03-23T03:46:30;0.95;;;0.70;;
16600;SDS011;34891;48.164;11.572;2023-03-23T03:51:34;2.38;;;1.45;;
16600;SDS011;34891;48.164;11.572;2023-03-23T03:56:37;3.70;;;2.30;;
16600;SDS011;34891;48.164;11.572;2023-03-23T04:01:40;2.78;;;1.63;;
16600;SDS011;34891;48.164;11.572;2023-03-23T04:06:44;2.65;;;1.50;;
16600;SDS011;34891;48.164;11.572;2023-03-23T04:11:46;5.43;;;2.08;;
16600;SDS011;34891;48.164;11.572;2023-03-23T04:16:57;3.72;;;1.90;;
16600;SDS011;34891;48.164;11.572;2023-03-23T04:22:02;1.35;;;0.80;;
16600;SDS011;34891;48.164;11.572;2023-03-23T04:27:04;1.15;;;0.77;;
16600;SDS011;34891;48.164;11.572;2023-03-23T04:32:06;3.17;;;1.55;;
16600;SDS011;34891;48.164;11.572;2023-03-23T04:37:11;6.13;;;2.25;;
16600;SDS011;34891;48.164;11.572;2023-03-23T04:42:14;4.63;;;2.20;;
16600;SDS011;34891;48.164;11.572;2023-03-23T04:47:16;3.60;;;1.33;;
16600;SDS011;34891;48.164;11.572;2023-03-23T04:52:20;6.03;;;1.95;;
16600;SDS011;34891;48.164;11.572;2023-03-23T04:57:22;3.65;;;1.52;;
16600;SDS011;34891;48.164;11.572;2023-03-23T05:02:25;3.90;;;1.80;;
16600;SDS011;34891;48.164;11.572;2023-03-23T05:07:35;4.72;;;1.83;;
16600;SDS011;34891;48.164;11.572;2023-03-23T05:12:37;2.08;;;1.38;;
16600;SDS011;34891;48.164;11.572;2023-03-23T05:17:39;5.25;;;2.03;;
16600;SDS011;34891;48.164;11.572;2023-03-23T05:22:47;5.35;;;1.90;;
16600;SDS011;34891;48.164;11.572;2023-03-23T05:27:50;4.22;;;1.75;;
16600;SDS011;34891;48.164;11.572;2023-03-23T05:32:53;2.40;;;1.13;;
16600;SDS011;34891;48.164;11.572;2023-03-23T05:37:58;3.35;;;1.02;;
16600;SDS011;34891;48.164;11.572;2023-03-23T05:43:00;1.30;;;0.82;;
16600;SDS011;34891;48.164;11.572;2023-03-23T05:48:02;4.32;;;1.20;;
16600;SDS011;34891;48.164;11.572;2023-03-23T05:53:05;2.15;;;0.95;;
16600;SDS011;34891;48.164;11.572;2023-03-23T05:58:07;2.10;;;1.10;;
16600;SDS011;34891;48.164;11.572;2023-03-23T06:03:10;4.87;;;1.43;;
16600;SDS011;34891;48.164;11.572;2023-03-23T06:08:14;3.15;;;0.90;;
16600;SDS011;34891;48.164;11.572;2023-03-23T06:13:15;3.58;;;1.23;;
16600;SDS011;34891;48.164;11.572;2023-03-23T06:18:18;3.58;;;1.40;;
16600;SDS011;34891;48.164;11.572;2023-03-23T06:23:25;7.80;;;1.98;;
16600;SDS011;34891;48.164;11.572;2023-03-23T06:28:28;3.80;;;1.63;;
16600;SDS011;34891;48.164;11.572;2023-03-23T06:33:30;4.93;;;2.60;;
16600;SDS011;34891;48.164;11.572;2023-03-23T06:38:33;4.60;;;2.13;;
16600;SDS011;34891;48.164;11.572;2023-03-23T06:43:36;3.95;;;2.13;;
16600;SDS011;34891;48.164;11.572;2023-03-23T06:48:41;6.25;;;2.30;;
16600;SDS011;34891;48.164;11.572;2023-03-23T06:53:44;4.60;;;1.75;;
16600;SDS011;34891;48.164;11.572;2023-03-23T06:58:48;3.05;;;1.67;;
16600;SDS011;34891;48.164;11.572;2023-03-23T07:03:50;5.63;;;2.10;;
16600;SDS011;34891;48.164;11.572;2023-03-23T07:08:54;4.72;;;1.40;;
16600;SDS011;34891;48.164;11.572;2023-03-23T07:13:56;2.90;;;1.60;;
16600;SDS011;34891;48.164;11.572;2023-03-23T07:18:59;5.20;;;1.77;;
16600;SDS011;34891;48.164;11.572;2023-03-23T07:24:09;2.50;;;1.45;;
16600;SDS011;34891;48.164;11.572;2023-03-23T07:29:12;3.60;;;1.40;;
16600;SDS011;34891;48.164;11.572;2023-03-23T07:34:14;1.75;;;1.45;;
16600;SDS011;34891;48.164;11.572;2023-03-23T07:39:18;3.88;;;1.77;;
16600;SDS011;34891;48.164;11.572;2023-03-23T07:44:21;2.47;;;1.30;;
16600;SDS011;34891;48.164;11.572;2023-03-23T07:49:23;4.97;;;2.00;;
16600;SDS011;34891;48.164;11.572;2023-03-23T07:54:29;3.28;;;1.58;;
16600;SDS011;34891;48.164;11.572;2023-03-23T07:59:33;3.75;;;1.88;;
16600;SDS011;34891;48.164;11.572;2023-03-23T08:04:35;3.88;;;2.00;;
16600;SDS011;34891;48.164;11.572;2023-03-23T08:09:39;3.95;;;1.83;;
16600;SDS011;34891;48.164;11.572;2023-03-23T08:14:42;4.13;;;2.17;;
16600;SDS011;34891;48.164;11.572;2023-03-23T08:19:43;4.43;;;1.60;;
16600;SDS011;34891;48.164;11.572;2023-03-23T08:24:48;3.63;;;1.10;;
16600;SDS011;34891;48.164;11.572;2023-03-23T08:35:02;4.32;;;1.80;;
16600;SDS011;34891;48.164;11.572;2023-03-23T08:40:16;3.03;;;1.70;;
16600;SDS011;34891;48.164;11.572;2023-03-23T08:45:29;2.40;;;1.45;;
16600;SDS011;34891;48.164;11.572;2023-03-23T08:50:31;3.00;;;1.80;;
16600;SDS011;34891;48.164;11.572;2023-03-23T08:55:34;4.10;;;1.98;;
16600;SDS011;34891;48.164;11.572;2023-03-23T09:00:40;3.92;;;1.88;;
16600;SDS011;34891;48.164;11.572;2023-03-23T09:05:43;5.60;;;2.25;;
16600;SDS011;34891;48.164;11.572;2023-03-23T09:10:48;3.47;;;1.90;;
16600;SDS011;34891;48.164;11.572;2023-03-23T09:15:52;7.88;;;2.20;;
16600;SDS011;34891;48.164;11.572;2023-03-23T09:20:54;6.15;;;2.47;;
16600;SDS011;34891;48.164;11.572;2023-03-23T09:25:58;9.07;;;2.50;;
16600;SDS011;34891;48.164;11.572;2023-03-23T09:31:02;7.55;;;2.25;;
16600;SDS011;34891;48.164;11.572;2023-03-23T09:36:05;4.13;;;1.67;;
16600;SDS011;34891;48.164;11.572;2023-03-23T09:41:25;3.33;;;1.63;;
16600;SDS011;34891;48.164;11.572;2023-03-23T09:46:39;6.35;;;2.00;;
16600;SDS011;34891;48.164;11.572;2023-03-23T09:51:46;2.40;;;1.15;;
16600;SDS011;34891;48.164;11.572;2023-03-23T09:56:52;3.25;;;1.75;;
16600;SDS011;34891;48.164;11.572;2023-03-23T10:01:57;6.13;;;2.67;;
16600;SDS011;34891;48.164;11.572;2023-03-23T10:07:00;3.75;;;2.00;;
16600;SDS011;34891;48.164;11.572;2023-03-23T10:12:14;6.03;;;2.90;;
16600;SDS011;34891;48.164;11.572;2023-03-23T10:17:19;3.97;;;2.28;;
16600;SDS011;34891;48.164;11.572;2023-03-23T10:22:25;8.20;;;2.88;;
16600;SDS011;34891;48.164;11.572;2023-03-23T10:27:32;3.70;;;2.15;;
16600;SDS011;34891;48.164;11.572;2023-03-23T10:32:47;5.47;;;2.70;;
16600;SDS011;34891;48.164;11.572;2023-03-23T10:38:02;3.50;;;1.98;;
16600;SDS011;34891;48.164;11.572;2023-03-23T10:43:07;3.70;;;2.00;;
16600;SDS011;34891;48.164;11.572;2023-03-23T10:48:15;3.28;;;1.60;;
16600;SDS011;34891;48.164;11.572;2023-03-23T10:53:20;2.55;;;1.40;;
16600;SDS011;34891;48.164;11.572;2023-03-23T10:58:24;5.72;;;2.00;;
16600;SDS011;34891;48.164;11.572;2023-03-23T11:03:35;3.90;;;1.80;;
16600;SDS011;34891;48.164;11.572;2023-03-23T11:08:47;4.88;;;2.15;;
16600;SDS011;34891;48.164;11.572;2023-03-23T11:13:56;6.63;;;2.65;;
16600;SDS011;34891;48.164;11.572;2023-03-23T11:19:10;5.63;;;2.45;;
16600;SDS011;34891;48.164;11.572;2023-03-23T11:24:14;5.78;;;2.20;;
16600;SDS011;34891;48.164;11.572;2023-03-23T11:29:19;5.93;;;2.42;;
16600;SDS011;34891;48.164;11.572;2023-03-23T11:34:29;4.65;;;1.75;;
16600;SDS011;34891;48.164;11.572;2023-03-23T11:39:45;4.65;;;2.25;;
16600;SDS011;34891;48.164;11.572;2023-03-23T11:45:07;2.75;;;1.83;;
16600;SDS011;34891;48.164;11.572;2023-03-23T11:50:24;5.22;;;2.20;;
16600;SDS011;34891;48.164;11.572;2023-03-23T11:55:49;2.40;;;1.50;;
16600;SDS011;34891;48.164;11.572;2023-03-23T12:00:56;3.00;;;1.63;;
16600;SDS011;34891;48.164;11.572;2023-03-23T12:06:01;9.68;;;2.88;;
16600;SDS011;34891;48.164;11.572;2023-03-23T12:11:06;5.32;;;2.30;;
16600;SDS011;34891;48.164;11.572;2023-03-23T12:16:13;6.80;;;2.70;;
16600;SDS011;34891;48.164;11.572;2023-03-23T12:21:19;8.05;;;2.72;;
16600;SDS011;34891;48.164;11.572;2023-03-23T12:26:23;7.70;;;3.03;;
16600;SDS011;34891;48.164;11.572;2023-03-23T12:31:30;6.60;;;3.10;;
16600;SDS011;34891;48.164;11.572;2023-03-23T12:36:40;6.45;;;2.75;;
16600;SDS011;34891;48.164;11.572;2023-03-23T12:41:45;3.92;;;2.17;;
16600;SDS011;34891;48.164;11.572;2023-03-23T12:52:14;2.50;;;1.58;;
16600;SDS011;34891;48.164;11.572;2023-03-23T12:57:20;6.95;;;2.85;;
16600;SDS011;34891;48.164;11.572;2023-03-23T13:02:25;5.30;;;1.90;;
16600;SDS011;34891;48.164;11.572;2023-03-23T13:07:30;4.13;;;1.55;;
16600;SDS011;34891;48.164;11.572;2023-03-23T13:12:35;2.53;;;1.52;;
16600;SDS011;34891;48.164;11.572;2023-03-23T13:17:44;2.42;;;1.40;;
16600;SDS011;34891;48.164;11.572;2023-03-23T13:22:49;5.50;;;1.52;;
16600;SDS011;34891;48.164;11.572;2023-03-23T13:27:58;3.05;;;1.50;;
16600;SDS011;34891;48.164;11.572;2023-03-23T13:33:02;2.40;;;1.30;;
16600;SDS011;34891;48.164;11.572;2023-03-23T13:43:30;3.50;;;1.98;;
16600;SDS011;34891;48.164;11.572;2023-03-23T13:48:39;4.22;;;1.80;;
16600;SDS011;34891;48.164;11.572;2023-03-23T13:53:43;3.20;;;1.73;;
16600;SDS011;34891;48.164;11.572;2023-03-23T13:58:48;5.65;;;1.90;;
16600;SDS011;34891;48.164;11.572;2023-03-23T14:03:53;3.33;;;1.80;;
16600;SDS011;34891;48.164;11.572;2023-03-23T14:08:56;2.25;;;1.55;;
16600;SDS011;34891;48.164;11.572;2023-03-23T14:14:12;1.67;;;1.10;;
16600;SDS011;34891;48.164;11.572;2023-03-23T14:19:17;5.40;;;1.88;;
16600;SDS011;34891;48.164;11.572;2023-03-23T14:24:22;1.75;;;1.17;;
16600;SDS011;34891;48.164;11.572;2023-03-23T14:29:26;2.25;;;1.33;;
16600;SDS011;34891;48.164;11.572;2023-03-23T14:34:29;3.63;;;1.55;;
16600;SDS011;34891;48.164;11.572;2023-03-23T14:39:33;7.88;;;1.70;;
16600;SDS011;34891;48.164;11.572;2023-03-23T14:44:39;2.03;;;1.27;;
16600;SDS011;34891;48.164;11.572;2023-03-23T14:49:42;2.75;;;1.30;;
16600;SDS011;34891;48.164;11.572;2023-03-23T14:54:45;2.30;;;1.27;;
16600;SDS011;34891;48.164;11.572;2023-03-23T14:59:49;3.63;;;1.60;;
16600;SDS011;34891;48.164;11.572;2023-03-23T15:04:53;4.30;;;1.40;;
16600;SDS011;34891;48.164;11.572;2023-03-23T15:10:00;5.35;;;1.58;;
16600;SDS011;34891;48.164;11.572;2023-03-23T15:15:13;3.80;;;1.27;;
16600;SDS011;34891;48.164;11.572;2023-03-23T15:20:23;2.38;;;1.55;;
16600;SDS011;34891;48.164;11.572;2023-03-23T15:25:29;2.00;;;1.20;;
16600;SDS011;34891;48.164;11.572;2023-03-23T15:30:36;2.20;;;1.50;;
16600;SDS011;34891;48.164;11.572;2023-03-23T15:35:39;2.80;;;1.60;;
16600;SDS011;34891;48.164;11.572;2023-03-23T15:40:42;4.20;;;1.77;;
16600;SDS011;34891;48.164;11.572;2023-03-23T15:45:54;3.88;;;1.70;;
16600;SDS011;34891;48.164;11.572;2023-03-23T15:50:56;2.75;;;1.60;;
16600;SDS011;34891;48.164;11.572;2023-03-23T15:56:00;1.63;;;1.35;;
16600;SDS011;34891;48.164;11.572;2023-03-23T16:01:05;4.07;;;1.50;;
16600;SDS011;34891;48.164;11.572;2023-03-23T16:06:10;2.63;;;1.63;;
16600;SDS011;34891;48.164;11.572;2023-03-23T16:11:26;2.85;;;1.42;;
16600;SDS011;34891;48.164;11.572;2023-03-23T16:16:35;4.20;;;1.48;;
16600;SDS011;34891;48.164;11.572;2023-03-23T16:21:45;3.53;;;1.60;;
16600;SDS011;34891;48.164;11.572;2023-03-23T16:26:54;4.40;;;1.80;;
16600;SDS011;34891;48.164;11.572;2023-03-23T16:32:08;5.07;;;1.35;;
16600;SDS011;34891;48.164;11.572;2023-03-23T16:37:12;3.13;;;1.70;;
16600;SDS011;34891;48.164;11.572;2023-03-23T16:42:14;4.57;;;1.80;;
16600;SDS011;34891;48.164;11.572;2023-03-23T16:52:26;2.75;;;1.92;;
16600;SDS011;34891;48.164;11.572;2023-03-23T16:57:35;3.85;;;1.73;;
16600;SDS011;34891;48.164;11.572;2023-03-23T17:02:39;4.63;;;1.73;;
16600;SDS011;34891;48.164;11.572;2023-03-23T17:07:44;2.88;;;1.65;;
16600;SDS011;34891;48.164;11.572;2023-03-23T17:12:52;4.88;;;2.20;;
16600;SDS011;34891;48.164;11.572;2023-03-23T17:23:04;3.30;;;1.80;;
16600;SDS011;34891;48.164;11.572;2023-03-23T17:28:07;5.90;;;2.35;;
16600;SDS011;34891;48.164;11.572;2023-03-23T17:33:15;5.03;;;1.92;;
16600;SDS011;34891;48.164;11.572;2023-03-23T17:38:20;4.57;;;2.08;;
16600;SDS011;34891;48.164;11.572;2023-03-23T17:43:25;4.07;;;2.05;;
16600;SDS011;34891;48.164;11.572;2023-03-23T17:48:39;4.35;;;2.50;;
16600;SDS011;34891;48.164;11.572;2023-03-23T17:53:54;4.28;;;2.20;;
16600;SDS011;34891;48.164;11.572;2023-03-23T17:58:58;6.22;;;1.80;;
16600;SDS011;34891;48.164;11.572;2023-03-23T18:04:01;3.50;;;2.20;;
16600;SDS011;34891;48.164;11.572;2023-03-23T18:09:07;5.82;;;2.53;;
16600;SDS011;34891;48.164;11.572;2023-03-23T18:14:09;6.60;;;2.08;;
16600;SDS011;34891;48.164;11.572;2023-03-23T18:19:13;5.50;;;1.90;;
16600;SDS011;34891;48.164;11.572;2023-03-23T18:24:20;5.25;;;2.40;;
16600;SDS011;34891;48.164;11.572;2023-03-23T18:29:24;6.85;;;2.25;;
16600;SDS011;34891;48.164;11.572;2023-03-23T18:34:27;5.18;;;2.70;;
16600;SDS011;34891;48.164;11.572;2023-03-23T18:39:38;6.93;;;2.83;;
16600;SDS011;34891;48.164;11.572;2023-03-23T18:44:47;7.32;;;3.50;;
16600;SDS011;34891;48.164;11.572;2023-03-23T18:49:50;5.80;;;2.78;;
16600;SDS011;34891;48.164;11.572;2023-03-23T18:54:58;5.72;;;2.40;;
16600;SDS011;34891;48.164;11.572;2023-03-23T19:00:01;5.10;;;1.98;;
16600;SDS011;34891;48.164;11.572;2023-03-23T19:05:05;7.25;;;2.42;;
16600;SDS011;34891;48.164;11.572;2023-03-23T19:10:10;9.68;;;3.28;;
16600;SDS011;34891;48.164;11.572;2023-03-23T19:15:13;6.40;;;2.80;;
16600;SDS011;34891;48.164;11.572;2023-03-23T19:20:16;5.13;;;2.55;;
16600;SDS011;34891;48.164;11.572;2023-03-23T19:25:41;5.68;;;3.20;;
16600;SDS011;34891;48.164;11.572;2023-03-23T19:30:45;4.95;;;2.80;;
16600;SDS011;34891;48.164;11.572;2023-03-23T19:35:48;5.70;;;2.47;;
16600;SDS011;34891;48.164;11.572;2023-03-23T19:41:11;8.55;;;2.90;;
16600;SDS011;34891;48.164;11.572;2023-03-23T19:46:14;5.55;;;2.65;;
16600;SDS011;34891;48.164;11.572;2023-03-23T19:51:18;9.52;;;3.10;;
16600;SDS011;34891;48.164;11.572;2023-03-23T19:56:23;8.50;;;3.55;;
16600;SDS011;34891;48.164;11.572;2023-03-23T20:01:28;10.15;;;3.05;;
16600;SDS011;34891;48.164;11.572;2023-03-23T20:06:33;7.10;;;2.80;;
16600;SDS011;34891;48.164;11.572;2023-03-23T20:11:39;8.10;;;3.75;;
16600;SDS011;34891;48.164;11.572;2023-03-23T20:16:42;3.00;;;1.67;;
16600;SDS011;34891;48.164;11.572;2023-03-23T20:21:46;3.05;;;1.77;;
16600;SDS011;34891;48.164;11.572;2023-03-23T20:26:51;3.25;;;1.77;;
16600;SDS011;34891;48.164;11.572;2023-03-23T20:31:54;3.83;;;1.58;;
16600;SDS011;34891;48.164;11.572;2023-03-23T20:36:57;6.80;;;2.87;;
16600;SDS011;34891;48.164;11.572;2023-03-23T20:42:02;4.00;;;1.50;;
16600;SDS011;34891;48.164;11.572;2023-03-23T20:47:09;5.50;;;2.55;;
16600;SDS011;34891;48.164;11.572;2023-03-23T20:52:13;8.55;;;3.28;;
16600;SDS011;34891;48.164;11.572;2023-03-23T20:57:17;4.97;;;2.30;;
16600;SDS011;34891;48.164;11.572;2023-03-23T21:02:21;5.00;;;2.83;;
16600;SDS011;34891;48.164;11.572;2023-03-23T21:07:26;3.33;;;1.83;;
16600;SDS011;34891;48.164;11.572;2023-03-23T21:12:35;6.80;;;3.10;;
16600;SDS011;34891;48.164;11.572;2023-03-23T21:17:38;8.90;;;3.20;;
16600;SDS011;34891;48.164;11.572;2023-03-23T21:27:56;6.13;;;3.30;;
16600;SDS011;34891;48.164;11.572;2023-03-23T21:33:05;10.43;;;3.13;;
16600;SDS011;34891;48.164;11.572;2023-03-23T21:38:09;7.82;;;2.85;;
16600;SDS011;34891;48.164;11.572;2023-03-23T21:43:17;8.57;;;3.17;;
16600;SDS011;34891;48.164;11.572;2023-03-23T21:48:21;8.27;;;2.92;;
16600;SDS011;34891;48.164;11.572;2023-03-23T21:58:29;6.88;;;2.65;;
16600;SDS011;34891;48.164;11.572;2023-03-23T22:03:33;5.82;;;2.67;;
16600;SDS011;34891;48.164;11.572;2023-03-23T22:08:37;8.50;;;3.17;;
16600;SDS011;34891;48.164;11.572;2023-03-23T22:13:42;6.85;;;2.97;;
16600;SDS011;34891;48.164;11.572;2023-03-23T22:18:45;6.40;;;3.15;;
16600;SDS011;34891;48.164;11.572;2023-03-23T22:23:51;6.13;;;2.63;;
16600;SDS011;34891;48.164;11.572;2023-03-23T22:28:57;4.43;;;1.90;;
16600;SDS011;34891;48.164;11.572;2023-03-23T22:34:02;5.78;;;3.00;;
16600;SDS011;34891;48.164;11.572;2023-03-23T22:39:06;5.10;;;2.65;;
16600;SDS011;34891;48.164;11.572;2023-03-23T22:44:15;6.88;;;3.15;;
16600;SDS011;34891;48.164;11.572;2023-03-23T22:49:20;5.38;;;2.70;;
16600;SDS011;34891;48.164;11.572;2023-03-23T22:54:33;3.33;;;2.17;;
16600;SDS011;34891;48.164;11.572;2023-03-23T22:59:37;5.60;;;2.30;;
16600;SDS011;34891;48.164;11.572;2023-03-23T23:04:40;5.60;;;1.95;;
16600;SDS011;34891;48.164;11.572;2023-03-23T23:09:43;3.17;;;2.17;;
16600;SDS011;34891;48.164;11.572;2023-03-23T23:14:49;4.95;;;2.45;;
16600;SDS011;34891;48.164;11.572;2023-03-23T23:19:53;5.03;;;2.70;;
16600;SDS011;34891;48.164;11.572;2023-03-23T23:24:57;5.57;;;2.60;;
16600;SDS011;34891;48.164;11.572;2023-03-23T23:35:08;3.33;;;1.67;;
16600;SDS011;34891;48.164;11.572;2023-03-23T23:40:13;4.47;;;2.38;;
16600;SDS011;34891;48.164;11.572;2023-03-23T23:45:17;5.68;;;2.50;;
16600;SDS011;34891;48.164;11.572;2023-03-23T23:50:22;2.53;;;1.65;;
16600;SDS011;34891;48.164;11.572;2023-03-23T23:55:27;4.05;;;2.15;;
